sensor_id;sensor_type;location;lat;lon;timestamp;pressure;altitude;pressure_sealevel;temperature;humidity
13705;BME280;6924;52.122;9.952;2023-11-19T00:00:49;99981.81;;;5.30;100.00
13705;BME280;6924;52.122;9.952;2023-11-19T00:03:16;99984.81;;;5.38;100.00
13705;BME280;6924;52.122;9.952;2023-11-19T00:05:43;99976.34;;;5.44;100.00
13705;BME280;6924;52.122;9.952;2023-11-19T00:08:09;99960.94;;;5.41;100.00
13705;BME280;6924;52.122;9.952;2023-11-19T00:10:37;99954.38;;;5.56;100.00
13705;BME280;6924;52.122;9.952;2023-11-19T00:13:05;99953.28;;;5.52;100.00
13705;BME280;6924;52.122;9.952;2023-11-19T00:15:32;99956.03;;;5.57;100.00
13705;BME280;6924;52.122;9.952;2023-11-19T00:17:58;99941.06;;;5.67;100.00
13705;BME280;6924;52.122;9.952;2023-11-19T00:20:25;99938.44;;;5.75;100.00
13705;BME280;6924;52.122;9.952;2023-11-19T00:22:51;99923.00;;;5.73;100.00
13705;BME280;6924;52.122;9.952;2023-11-19T00:25:18;99934.41;;;5.82;100.00
13705;BME280;6924;52.122;9.952;2023-11-19T00:27:46;99929.53;;;5.92;100.00
13705;BME280;6924;52.122;9.952;2023-11-19T00:30:13;99906.53;;;5.90;100.00
13705;BME280;6924;52.122;9.952;2023-11-19T00:32:40;99897.47;;;5.98;100.00
13705;BME280;6924;52.122;9.952;2023-11-19T00:35:07;99893.78;;;6.03;100.00
13705;BME280;6924;52.122;9.952;2023-11-19T00:37:35;99892.66;;;6.04;100.00
13705;BME280;6924;52.122;9.952;2023-11-19T00:40:02;99889.88;;;5.99;100.00
13705;BME280;6924;52.122;9.952;2023-11-19T00:42:30;99881.72;;;6.03;100.00
13705;BME280;6924;52.122;9.952;2023-11-19T00:44:58;99857.56;;;6.02;100.00
13705;BME280;6924;52.122;9.952;2023-11-19T00:47:26;99862.75;;;6.13;100.00
13705;BME280;6924;52.122;9.952;2023-11-19T00:49:53;99859.94;;;6.13;100.00
13705;BME280;6924;52.122;9.952;2023-11-19T00:52:19;99855.53;;;6.07;100.00
13705;BME280;6924;52.122;9.952;2023-11-19T00:54:47;99832.31;;;6.02;100.00
13705;BME280;6924;52.122;9.952;2023-11-19T00:57:13;99827.84;;;6.00;100.00
13705;BME280;6924;52.122;9.952;2023-11-19T00:59:41;99832.66;;;5.95;100.00
13705;BME280;6924;52.122;9.952;2023-11-19T01:02:09;99832.38;;;5.96;100.00
13705;BME280;6924;52.122;9.952;2023-11-19T01:04:36;99845.88;;;5.94;100.00
13705;BME280;6924;52.122;9.952;2023-11-19T01:07:04;99841.69;;;5.92;100.00
13705;BME280;6924;52.122;9.952;2023-11-19T01:09:31;99833.53;;;5.95;100.00
13705;BME280;6924;52.122;9.952;2023-11-19T01:11:59;99826.75;;;5.96;100.00
13705;BME280;6924;52.122;9.952;2023-11-19T01:14:26;99821.06;;;6.02;100.00
13705;BME280;6924;52.122;9.952;2023-11-19T01:16:52;99812.72;;;5.96;100.00
13705;BME280;6924;52.122;9.952;2023-11-19T01:19:21;99790.56;;;5.95;100.00
13705;BME280;6924;52.122;9.952;2023-11-19T01:21:49;99793.66;;;5.93;100.00
13705;BME280;6924;52.122;9.952;2023-11-19T01:24:15;99783.56;;;5.92;100.00
13705;BME280;6924;52.122;9.952;2023-11-19T01:26:43;99788.06;;;5.93;100.00
13705;BME280;6924;52.122;9.952;2023-11-19T01:29:10;99785.00;;;5.90;100.00
13705;BME280;6924;52.122;9.952;2023-11-19T01:31:38;99785.31;;;5.88;100.00
13705;BME280;6924;52.122;9.952;2023-11-19T01:34:04;99784.38;;;5.93;100.00
13705;BME280;6924;52.122;9.952;2023-11-19T01:36:32;99778.78;;;5.93;100.00
13705;BME280;6924;52.122;9.952;2023-11-19T01:38:59;99779.59;;;5.98;100.00
13705;BME280;6924;52.122;9.952;2023-11-19T01:41:26;99774.78;;;5.99;100.00
13705;BME280;6924;52.122;9.952;2023-11-19T01:43:53;99778.03;;;6.06;100.00
13705;BME280;6924;52.122;9.952;2023-11-19T01:46:19;99776.63;;;6.09;100.00
13705;BME280;6924;52.122;9.952;2023-11-19T01:48:46;99788.31;;;6.16;100.00
13705;BME280;6924;52.122;9.952;2023-11-19T01:51:13;99771.75;;;6.14;100.00
13705;BME280;6924;52.122;9.952;2023-11-19T01:53:43;99759.00;;;6.22;100.00
13705;BME280;6924;52.122;9.952;2023-11-19T01:56:13;99768.84;;;6.19;100.00
13705;BME280;6924;52.122;9.952;2023-11-19T01:58:40;99775.16;;;6.30;100.00
13705;BME280;6924;52.122;9.952;2023-11-19T02:01:09;99761.44;;;6.29;100.00
13705;BME280;6924;52.122;9.952;2023-11-19T02:03:36;99758.38;;;6.25;100.00
13705;BME280;6924;52.122;9.952;2023-11-19T02:06:04;99764.25;;;6.29;100.00
13705;BME280;6924;52.122;9.952;2023-11-19T02:08:31;99751.03;;;6.29;100.00
13705;BME280;6924;52.122;9.952;2023-11-19T02:10:58;99751.75;;;6.35;100.00
13705;BME280;6924;52.122;9.952;2023-11-19T02:13:26;99758.53;;;6.34;100.00
13705;BME280;6924;52.122;9.952;2023-11-19T02:15:53;99740.50;;;6.35;100.00
13705;BME280;6924;52.122;9.952;2023-11-19T02:18:21;99740.34;;;6.45;100.00
13705;BME280;6924;52.122;9.952;2023-11-19T02:20:48;99745.44;;;6.43;100.00
13705;BME280;6924;52.122;9.952;2023-11-19T02:23:16;99740.34;;;6.45;100.00
13705;BME280;6924;52.122;9.952;2023-11-19T02:25:43;99718.41;;;6.47;100.00
13705;BME280;6924;52.122;9.952;2023-11-19T02:28:16;99729.13;;;6.45;100.00
13705;BME280;6924;52.122;9.952;2023-11-19T02:30:43;99718.94;;;6.49;100.00
13705;BME280;6924;52.122;9.952;2023-11-19T02:33:10;99723.19;;;6.47;100.00
13705;BME280;6924;52.122;9.952;2023-11-19T02:35:36;99704.25;;;6.52;100.00
13705;BME280;6924;52.122;9.952;2023-11-19T02:38:02;99712.38;;;6.54;100.00
13705;BME280;6924;52.122;9.952;2023-11-19T02:40:29;99709.06;;;6.52;100.00
13705;BME280;6924;52.122;9.952;2023-11-19T02:42:56;99699.78;;;6.51;100.00
13705;BME280;6924;52.122;9.952;2023-11-19T02:45:25;99694.19;;;6.51;100.00
13705;BME280;6924;52.122;9.952;2023-11-19T02:47:52;99697.72;;;6.57;100.00
13705;BME280;6924;52.122;9.952;2023-11-19T02:50:21;99683.06;;;6.60;100.00
13705;BME280;6924;52.122;9.952;2023-11-19T02:52:52;99681.81;;;6.66;100.00
13705;BME280;6924;52.122;9.952;2023-11-19T02:55:21;99684.31;;;6.68;100.00
13705;BME280;6924;52.122;9.952;2023-11-19T02:57:49;99671.81;;;6.74;100.00
13705;BME280;6924;52.122;9.952;2023-11-19T03:00:17;99676.31;;;6.75;100.00
13705;BME280;6924;52.122;9.952;2023-11-19T03:02:48;99664.22;;;6.74;100.00
13705;BME280;6924;52.122;9.952;2023-11-19T03:05:24;99656.13;;;6.87;100.00
13705;BME280;6924;52.122;9.952;2023-11-19T03:07:51;99663.91;;;6.90;100.00
13705;BME280;6924;52.122;9.952;2023-11-19T03:10:17;99667.97;;;6.97;100.00
13705;BME280;6924;52.122;9.952;2023-11-19T03:12:44;99664.88;;;6.99;100.00
13705;BME280;6924;52.122;9.952;2023-11-19T03:15:11;99662.88;;;6.99;100.00
13705;BME280;6924;52.122;9.952;2023-11-19T03:17:38;99658.81;;;7.06;100.00
13705;BME280;6924;52.122;9.952;2023-11-19T03:20:08;99649.66;;;7.00;100.00
13705;BME280;6924;52.122;9.952;2023-11-19T03:22:36;99652.25;;;7.10;100.00
13705;BME280;6924;52.122;9.952;2023-11-19T03:25:03;99647.97;;;7.13;100.00
13705;BME280;6924;52.122;9.952;2023-11-19T03:27:30;99646.41;;;7.07;100.00
13705;BME280;6924;52.122;9.952;2023-11-19T03:29:59;99638.06;;;7.15;100.00
13705;BME280;6924;52.122;9.952;2023-11-19T03:32:27;99640.88;;;7.15;100.00
13705;BME280;6924;52.122;9.952;2023-11-19T03:34:53;99647.25;;;7.21;100.00
13705;BME280;6924;52.122;9.952;2023-11-19T03:37:23;99641.09;;;7.19;100.00
13705;BME280;6924;52.122;9.952;2023-11-19T03:39:50;99640.47;;;7.22;100.00
13705;BME280;6924;52.122;9.952;2023-11-19T03:42:18;99637.78;;;7.17;100.00
13705;BME280;6924;52.122;9.952;2023-11-19T03:44:45;99642.53;;;7.16;100.00
13705;BME280;6924;52.122;9.952;2023-11-19T03:47:12;99648.50;;;7.15;100.00
13705;BME280;6924;52.122;9.952;2023-11-19T03:49:38;99648.81;;;7.13;100.00
13705;BME280;6924;52.122;9.952;2023-11-19T03:52:05;99638.28;;;7.19;100.00
13705;BME280;6924;52.122;9.952;2023-11-19T03:54:33;99636.19;;;7.24;100.00
13705;BME280;6924;52.122;9.952;2023-11-19T03:57:01;99640.75;;;7.34;100.00
13705;BME280;6924;52.122;9.952;2023-11-19T03:59:28;99616.44;;;7.38;100.00
13705;BME280;6924;52.122;9.952;2023-11-19T04:01:55;99610.72;;;7.43;100.00
13705;BME280;6924;52.122;9.952;2023-11-19T04:04:21;99612.72;;;7.43;100.00
13705;BME280;6924;52.122;9.952;2023-11-19T04:06:48;99602.97;;;7.49;100.00
13705;BME280;6924;52.122;9.952;2023-11-19T04:09:13;99594.34;;;7.45;100.00
13705;BME280;6924;52.122;9.952;2023-11-19T04:11:41;99572.69;;;7.46;100.00
13705;BME280;6924;52.122;9.952;2023-11-19T04:14:08;99576.69;;;7.54;100.00
13705;BME280;6924;52.122;9.952;2023-11-19T04:16:35;99572.91;;;7.58;100.00
13705;BME280;6924;52.122;9.952;2023-11-19T04:19:01;99561.03;;;7.61;100.00
13705;BME280;6924;52.122;9.952;2023-11-19T04:21:28;99574.09;;;7.57;100.00
13705;BME280;6924;52.122;9.952;2023-11-19T04:23:54;99569.19;;;7.63;100.00
13705;BME280;6924;52.122;9.952;2023-11-19T04:26:21;99565.00;;;7.60;100.00
13705;BME280;6924;52.122;9.952;2023-11-19T04:28:49;99559.44;;;7.69;100.00
13705;BME280;6924;52.122;9.952;2023-11-19T04:31:15;99560.72;;;7.63;100.00
13705;BME280;6924;52.122;9.952;2023-11-19T04:33:42;99568.66;;;7.61;100.00
13705;BME280;6924;52.122;9.952;2023-11-19T04:36:09;99576.59;;;7.59;100.00
13705;BME280;6924;52.122;9.952;2023-11-19T04:38:39;99584.53;;;7.57;100.00
13705;BME280;6924;52.122;9.952;2023-11-19T04:41:06;99587.72;;;7.64;100.00
13705;BME280;6924;52.122;9.952;2023-11-19T04:43:33;99588.75;;;7.68;100.00
13705;BME280;6924;52.122;9.952;2023-11-19T04:46:03;99590.91;;;7.71;100.00
13705;BME280;6924;52.122;9.952;2023-11-19T04:48:30;99598.06;;;7.77;100.00
13705;BME280;6924;52.122;9.952;2023-11-19T04:50:56;99594.06;;;7.70;100.00
13705;BME280;6924;52.122;9.952;2023-11-19T04:53:23;99595.25;;;7.77;100.00
13705;BME280;6924;52.122;9.952;2023-11-19T04:55:49;99587.69;;;7.86;100.00
13705;BME280;6924;52.122;9.952;2023-11-19T04:58:16;99601.78;;;7.86;100.00
13705;BME280;6924;52.122;9.952;2023-11-19T05:00:42;99600.06;;;7.99;100.00
13705;BME280;6924;52.122;9.952;2023-11-19T05:03:10;99586.78;;;8.00;100.00
13705;BME280;6924;52.122;9.952;2023-11-19T05:05:36;99581.88;;;8.05;100.00
13705;BME280;6924;52.122;9.952;2023-11-19T05:08:03;99583.81;;;7.96;100.00
13705;BME280;6924;52.122;9.952;2023-11-19T05:10:30;99579.38;;;8.04;100.00
13705;BME280;6924;52.122;9.952;2023-11-19T05:12:57;99580.03;;;8.01;100.00
13705;BME280;6924;52.122;9.952;2023-11-19T05:15:23;99585.56;;;8.15;100.00
13705;BME280;6924;52.122;9.952;2023-11-19T05:17:50;99580.97;;;8.19;100.00
13705;BME280;6924;52.122;9.952;2023-11-19T05:20:18;99571.22;;;8.25;100.00
13705;BME280;6924;52.122;9.952;2023-11-19T05:22:44;99567.88;;;8.23;100.00
13705;BME280;6924;52.122;9.952;2023-11-19T05:25:11;99553.03;;;8.40;100.00
13705;BME280;6924;52.122;9.952;2023-11-19T05:27:37;99544.56;;;8.40;100.00
13705;BME280;6924;52.122;9.952;2023-11-19T05:30:05;99542.09;;;8.38;100.00
13705;BME280;6924;52.122;9.952;2023-11-19T05:32:32;99537.44;;;8.34;100.00
13705;BME280;6924;52.122;9.952;2023-11-19T05:34:59;99528.50;;;8.32;100.00
13705;BME280;6924;52.122;9.952;2023-11-19T05:37:27;99535.13;;;8.36;100.00
13705;BME280;6924;52.122;9.952;2023-11-19T05:39:53;99525.75;;;8.40;100.00
13705;BME280;6924;52.122;9.952;2023-11-19T05:42:20;99525.63;;;8.54;100.00
13705;BME280;6924;52.122;9.952;2023-11-19T05:44:46;99531.59;;;8.61;100.00
13705;BME280;6924;52.122;9.952;2023-11-19T05:47:13;99533.63;;;8.69;100.00
13705;BME280;6924;52.122;9.952;2023-11-19T05:49:39;99535.28;;;8.79;100.00
13705;BME280;6924;52.122;9.952;2023-11-19T05:52:06;99544.13;;;8.86;100.00
13705;BME280;6924;52.122;9.952;2023-11-19T05:54:36;99544.59;;;8.97;100.00
13705;BME280;6924;52.122;9.952;2023-11-19T05:57:04;99549.13;;;9.07;100.00
13705;BME280;6924;52.122;9.952;2023-11-19T05:59:30;99529.06;;;9.08;100.00
13705;BME280;6924;52.122;9.952;2023-11-19T06:01:58;99532.84;;;9.21;100.00
13705;BME280;6924;52.122;9.952;2023-11-19T06:04:25;99543.00;;;9.22;100.00
13705;BME280;6924;52.122;9.952;2023-11-19T06:06:51;99536.53;;;9.30;100.00
13705;BME280;6924;52.122;9.952;2023-11-19T06:09:20;99534.88;;;9.29;100.00
13705;BME280;6924;52.122;9.952;2023-11-19T06:11:49;99538.38;;;9.35;100.00
13705;BME280;6924;52.122;9.952;2023-11-19T06:14:16;99541.69;;;9.37;100.00
13705;BME280;6924;52.122;9.952;2023-11-19T06:16:42;99543.00;;;9.40;100.00
13705;BME280;6924;52.122;9.952;2023-11-19T06:19:09;99545.66;;;9.45;100.00
13705;BME280;6924;52.122;9.952;2023-11-19T06:21:39;99546.97;;;9.47;100.00
13705;BME280;6924;52.122;9.952;2023-11-19T06:24:06;99544.50;;;9.46;100.00
13705;BME280;6924;52.122;9.952;2023-11-19T06:26:34;99546.81;;;9.52;100.00
13705;BME280;6924;52.122;9.952;2023-11-19T06:29:01;99551.97;;;9.59;100.00
13705;BME280;6924;52.122;9.952;2023-11-19T06:31:28;99553.78;;;9.64;100.00
13705;BME280;6924;52.122;9.952;2023-11-19T06:33:54;99560.75;;;9.66;100.00
13705;BME280;6924;52.122;9.952;2023-11-19T06:36:27;99551.47;;;9.66;100.00
13705;BME280;6924;52.122;9.952;2023-11-19T06:38:54;99563.25;;;9.68;100.00
13705;BME280;6924;52.122;9.952;2023-11-19T06:41:31;99567.41;;;9.70;100.00
13705;BME280;6924;52.122;9.952;2023-11-19T06:43:57;99560.75;;;9.66;100.00
13705;BME280;6924;52.122;9.952;2023-11-19T06:46:26;99557.25;;;9.61;100.00
13705;BME280;6924;52.122;9.952;2023-11-19T06:48:56;99565.72;;;9.61;100.00
13705;BME280;6924;52.122;9.952;2023-11-19T06:51:22;99574.06;;;9.75;100.00
13705;BME280;6924;52.122;9.952;2023-11-19T06:53:49;99576.69;;;9.80;100.00
13705;BME280;6924;52.122;9.952;2023-11-19T06:56:20;99575.38;;;9.86;100.00
13705;BME280;6924;52.122;9.952;2023-11-19T06:58:47;99576.69;;;9.88;100.00
13705;BME280;6924;52.122;9.952;2023-11-19T07:01:14;99569.84;;;9.89;100.00
13705;BME280;6924;52.122;9.952;2023-11-19T07:03:42;99572.84;;;9.93;100.00
13705;BME280;6924;52.122;9.952;2023-11-19T07:06:11;99581.81;;;9.95;100.00
13705;BME280;6924;52.122;9.952;2023-11-19T07:08:39;99591.94;;;9.96;100.00
13705;BME280;6924;52.122;9.952;2023-11-19T07:11:05;99592.31;;;9.95;100.00
13705;BME280;6924;52.122;9.952;2023-11-19T07:13:35;99596.25;;;10.02;100.00
13705;BME280;6924;52.122;9.952;2023-11-19T07:16:01;99609.22;;;10.12;100.00
13705;BME280;6924;52.122;9.952;2023-11-19T07:18:28;99603.06;;;10.19;100.00
13705;BME280;6924;52.122;9.952;2023-11-19T07:20:58;99597.88;;;10.21;100.00
13705;BME280;6924;52.122;9.952;2023-11-19T07:23:25;99591.75;;;10.19;100.00
13705;BME280;6924;52.122;9.952;2023-11-19T07:25:51;99609.84;;;10.26;100.00
13705;BME280;6924;52.122;9.952;2023-11-19T07:28:18;99599.56;;;10.30;100.00
13705;BME280;6924;52.122;9.952;2023-11-19T07:30:45;99600.38;;;10.40;100.00
13705;BME280;6924;52.122;9.952;2023-11-19T07:33:11;99597.84;;;10.47;100.00
13705;BME280;6924;52.122;9.952;2023-11-19T07:35:39;99598.84;;;10.42;100.00
13705;BME280;6924;52.122;9.952;2023-11-19T07:38:07;99605.69;;;10.41;100.00
13705;BME280;6924;52.122;9.952;2023-11-19T07:40:34;99610.66;;;10.44;100.00
13705;BME280;6924;52.122;9.952;2023-11-19T07:43:00;99605.50;;;10.46;100.00
13705;BME280;6924;52.122;9.952;2023-11-19T07:45:27;99605.31;;;10.51;100.00
13705;BME280;6924;52.122;9.952;2023-11-19T07:47:53;99612.13;;;10.50;100.00
13705;BME280;6924;52.122;9.952;2023-11-19T07:50:20;99601.31;;;10.52;100.00
13705;BME280;6924;52.122;9.952;2023-11-19T07:52:47;99612.44;;;10.58;100.00
13705;BME280;6924;52.122;9.952;2023-11-19T07:55:15;99617.47;;;10.52;100.00
13705;BME280;6924;52.122;9.952;2023-11-19T07:57:41;99629.75;;;10.56;100.00
13705;BME280;6924;52.122;9.952;2023-11-19T08:00:09;99625.06;;;10.60;100.00
13705;BME280;6924;52.122;9.952;2023-11-19T08:02:38;99618.25;;;10.61;100.00
13705;BME280;6924;52.122;9.952;2023-11-19T08:05:05;99623.91;;;10.61;100.00
13705;BME280;6924;52.122;9.952;2023-11-19T08:07:31;99610.94;;;10.60;100.00
13705;BME280;6924;52.122;9.952;2023-11-19T08:10:01;99609.97;;;10.56;100.00
13705;BME280;6924;52.122;9.952;2023-11-19T08:12:29;99607.47;;;10.54;100.00
13705;BME280;6924;52.122;9.952;2023-11-19T08:14:56;99614.13;;;10.59;100.00
13705;BME280;6924;52.122;9.952;2023-11-19T08:17:23;99620.75;;;10.63;100.00
13705;BME280;6924;52.122;9.952;2023-11-19T08:19:50;99629.03;;;10.68;100.00
13705;BME280;6924;52.122;9.952;2023-11-19T08:22:17;99624.22;;;10.68;100.00
13705;BME280;6924;52.122;9.952;2023-11-19T08:24:43;99630.19;;;10.67;100.00
13705;BME280;6924;52.122;9.952;2023-11-19T08:27:10;99627.38;;;10.67;100.00
13705;BME280;6924;52.122;9.952;2023-11-19T08:29:37;99629.38;;;10.66;100.00
13705;BME280;6924;52.122;9.952;2023-11-19T08:32:06;99635.53;;;10.68;100.00
13705;BME280;6924;52.122;9.952;2023-11-19T08:34:32;99643.31;;;10.71;100.00
13705;BME280;6924;52.122;9.952;2023-11-19T08:36:59;99659.31;;;10.76;100.00
13705;BME280;6924;52.122;9.952;2023-11-19T08:39:26;99660.13;;;10.77;100.00
13705;BME280;6924;52.122;9.952;2023-11-19T08:41:52;99659.13;;;10.72;100.00
13705;BME280;6924;52.122;9.952;2023-11-19T08:44:20;99650.16;;;10.70;100.00
13705;BME280;6924;52.122;9.952;2023-11-19T08:46:49;99665.16;;;10.62;100.00
13705;BME280;6924;52.122;9.952;2023-11-19T08:49:35;99644.00;;;10.68;100.00
13705;BME280;6924;52.122;9.952;2023-11-19T08:52:26;99634.00;;;10.71;100.00
13705;BME280;6924;52.122;9.952;2023-11-19T08:54:56;99640.50;;;10.71;100.00
13705;BME280;6924;52.122;9.952;2023-11-19T08:57:22;99636.06;;;10.62;100.00
13705;BME280;6924;52.122;9.952;2023-11-19T08:59:55;99640.19;;;10.64;100.00
13705;BME280;6924;52.122;9.952;2023-11-19T09:02:25;99631.72;;;10.64;100.00
13705;BME280;6924;52.122;9.952;2023-11-19T09:04:51;99635.34;;;10.65;100.00
13705;BME280;6924;52.122;9.952;2023-11-19T09:07:18;99637.34;;;10.73;100.00
13705;BME280;6924;52.122;9.952;2023-11-19T09:09:48;99650.66;;;10.72;100.00
13705;BME280;6924;52.122;9.952;2023-11-19T09:12:21;99646.31;;;10.75;100.00
13705;BME280;6924;52.122;9.952;2023-11-19T09:14:47;99661.44;;;10.79;100.00
13705;BME280;6924;52.122;9.952;2023-11-19T09:17:17;99659.63;;;10.74;100.00
13705;BME280;6924;52.122;9.952;2023-11-19T09:20:09;99661.13;;;10.81;100.00
13705;BME280;6924;52.122;9.952;2023-11-19T09:22:40;99659.09;;;10.81;100.00
13705;BME280;6924;52.122;9.952;2023-11-19T09:25:07;99668.72;;;10.89;100.00
13705;BME280;6924;52.122;9.952;2023-11-19T09:31:14;99673.22;;;10.90;100.00
13705;BME280;6924;52.122;9.952;2023-11-19T09:33:41;99676.88;;;10.90;100.00
13705;BME280;6924;52.122;9.952;2023-11-19T09:36:10;99668.19;;;10.95;100.00
13705;BME280;6924;52.122;9.952;2023-11-19T09:38:38;99673.03;;;10.95;100.00
13705;BME280;6924;52.122;9.952;2023-11-19T09:41:06;99674.38;;;10.89;100.00
13705;BME280;6924;52.122;9.952;2023-11-19T09:43:34;99677.72;;;10.82;100.00
13705;BME280;6924;52.122;9.952;2023-11-19T09:46:04;99675.06;;;10.86;100.00
13705;BME280;6924;52.122;9.952;2023-11-19T09:48:32;99656.25;;;10.90;100.00
13705;BME280;6924;52.122;9.952;2023-11-19T09:51:00;99655.56;;;10.93;100.00
13705;BME280;6924;52.122;9.952;2023-11-19T09:53:28;99662.53;;;10.95;100.00
13705;BME280;6924;52.122;9.952;2023-11-19T09:55:55;99667.19;;;11.00;100.00
13705;BME280;6924;52.122;9.952;2023-11-19T09:58:22;99665.66;;;11.11;100.00
13705;BME280;6924;52.122;9.952;2023-11-19T10:00:49;99677.25;;;11.19;100.00
13705;BME280;6924;52.122;9.952;2023-11-19T10:03:17;99675.94;;;11.16;99.98
13705;BME280;6924;52.122;9.952;2023-11-19T10:05:44;99681.78;;;11.11;100.00
13705;BME280;6924;52.122;9.952;2023-11-19T10:08:10;99674.47;;;11.10;100.00
13705;BME280;6924;52.122;9.952;2023-11-19T10:10:38;99678.28;;;11.14;100.00
13705;BME280;6924;52.122;9.952;2023-11-19T10:13:05;99677.09;;;11.15;100.00
13705;BME280;6924;52.122;9.952;2023-11-19T10:15:37;99686.06;;;11.17;100.00
13705;BME280;6924;52.122;9.952;2023-11-19T10:18:03;99688.75;;;11.22;100.00
13705;BME280;6924;52.122;9.952;2023-11-19T10:20:35;99678.56;;;11.21;100.00
13705;BME280;6924;52.122;9.952;2023-11-19T10:23:01;99690.06;;;11.25;100.00
13705;BME280;6924;52.122;9.952;2023-11-19T10:25:29;99698.72;;;11.20;100.00
13705;BME280;6924;52.122;9.952;2023-11-19T10:27:57;99695.06;;;11.19;100.00
13705;BME280;6924;52.122;9.952;2023-11-19T10:30:24;99684.75;;;11.14;100.00
13705;BME280;6924;52.122;9.952;2023-11-19T10:33:04;99695.59;;;11.12;100.00
13705;BME280;6924;52.122;9.952;2023-11-19T10:35:32;99689.59;;;11.14;100.00
13705;BME280;6924;52.122;9.952;2023-11-19T10:38:01;99681.97;;;11.06;100.00
13705;BME280;6924;52.122;9.952;2023-11-19T10:40:42;99688.81;;;11.05;100.00
13705;BME280;6924;52.122;9.952;2023-11-19T10:43:10;99686.34;;;10.94;100.00
13705;BME280;6924;52.122;9.952;2023-11-19T10:45:37;99685.16;;;10.95;100.00
13705;BME280;6924;52.122;9.952;2023-11-19T10:48:05;99693.16;;;10.93;100.00
13705;BME280;6924;52.122;9.952;2023-11-19T10:50:33;99681.50;;;10.95;100.00
13705;BME280;6924;52.122;9.952;2023-11-19T10:53:00;99674.22;;;10.94;100.00
13705;BME280;6924;52.122;9.952;2023-11-19T10:55:29;99668.50;;;11.03;100.00
13705;BME280;6924;52.122;9.952;2023-11-19T10:57:59;99663.34;;;11.05;100.00
13705;BME280;6924;52.122;9.952;2023-11-19T11:00:29;99673.78;;;11.13;100.00
13705;BME280;6924;52.122;9.952;2023-11-19T11:03:00;99675.44;;;11.14;100.00
13705;BME280;6924;52.122;9.952;2023-11-19T11:05:29;99675.25;;;11.19;100.00
13705;BME280;6924;52.122;9.952;2023-11-19T11:07:58;99656.41;;;11.23;100.00
13705;BME280;6924;52.122;9.952;2023-11-19T11:10:29;99663.56;;;11.29;100.00
13705;BME280;6924;52.122;9.952;2023-11-19T11:13:03;99668.66;;;11.36;100.00
13705;BME280;6924;52.122;9.952;2023-11-19T11:15:31;99669.16;;;11.38;100.00
13705;BME280;6924;52.122;9.952;2023-11-19T11:17:59;99669.00;;;11.34;100.00
13705;BME280;6924;52.122;9.952;2023-11-19T11:20:27;99667.63;;;11.41;100.00
13705;BME280;6924;52.122;9.952;2023-11-19T11:23:08;99667.63;;;11.41;100.00
13705;BME280;6924;52.122;9.952;2023-11-19T11:25:47;99653.97;;;11.43;100.00
13705;BME280;6924;52.122;9.952;2023-11-19T11:28:26;99659.63;;;11.43;100.00
13705;BME280;6924;52.122;9.952;2023-11-19T11:31:24;99666.94;;;11.44;100.00
13705;BME280;6924;52.122;9.952;2023-11-19T11:36:58;99662.97;;;11.45;98.07
13705;BME280;6924;52.122;9.952;2023-11-19T11:39:29;99665.63;;;11.41;99.35
13705;BME280;6924;52.122;9.952;2023-11-19T11:42:34;99663.28;;;11.43;98.93
13705;BME280;6924;52.122;9.952;2023-11-19T11:45:02;99670.13;;;11.42;98.46
13705;BME280;6924;52.122;9.952;2023-11-19T11:48:12;99668.13;;;11.43;98.98
13705;BME280;6924;52.122;9.952;2023-11-19T11:50:54;99660.75;;;11.50;98.82
13705;BME280;6924;52.122;9.952;2023-11-19T11:53:22;99674.03;;;11.58;100.00
13705;BME280;6924;52.122;9.952;2023-11-19T11:55:58;99664.22;;;11.56;100.00
13705;BME280;6924;52.122;9.952;2023-11-19T11:58:32;99672.97;;;11.63;99.59
13705;BME280;6924;52.122;9.952;2023-11-19T12:01:02;99670.50;;;11.62;97.99
13705;BME280;6924;52.122;9.952;2023-11-19T12:03:33;99667.16;;;11.59;97.05
13705;BME280;6924;52.122;9.952;2023-11-19T12:06:00;99669.66;;;11.61;94.54
13705;BME280;6924;52.122;9.952;2023-11-19T12:08:29;99669.00;;;11.64;95.71
13705;BME280;6924;52.122;9.952;2023-11-19T12:10:57;99660.44;;;11.73;95.89
13705;BME280;6924;52.122;9.952;2023-11-19T12:13:46;99658.53;;;11.77;97.02
13705;BME280;6924;52.122;9.952;2023-11-19T12:16:14;99651.78;;;11.69;95.08
13705;BME280;6924;52.122;9.952;2023-11-19T12:18:42;99647.59;;;11.75;94.95
13705;BME280;6924;52.122;9.952;2023-11-19T12:21:27;99646.16;;;11.82;94.65
13705;BME280;6924;52.122;9.952;2023-11-19T12:23:54;99652.88;;;11.77;95.09
13705;BME280;6924;52.122;9.952;2023-11-19T12:26:31;99655.22;;;11.75;95.33
13705;BME280;6924;52.122;9.952;2023-11-19T12:29:00;99647.75;;;11.70;93.54
13705;BME280;6924;52.122;9.952;2023-11-19T12:31:36;99652.59;;;11.70;94.12
13705;BME280;6924;52.122;9.952;2023-11-19T12:34:09;99655.22;;;11.75;96.25
13705;BME280;6924;52.122;9.952;2023-11-19T12:36:45;99650.03;;;11.77;94.98
13705;BME280;6924;52.122;9.952;2023-11-19T12:39:36;99646.59;;;11.71;94.50
13705;BME280;6924;52.122;9.952;2023-11-19T12:42:37;99649.56;;;11.75;94.56
13705;BME280;6924;52.122;9.952;2023-11-19T12:45:13;99657.88;;;11.80;94.12
13705;BME280;6924;52.122;9.952;2023-11-19T12:48:14;99647.75;;;11.70;93.84
13705;BME280;6924;52.122;9.952;2023-11-19T12:54:30;99638.03;;;11.59;92.58
13705;BME280;6924;52.122;9.952;2023-11-19T12:57:03;99621.94;;;11.51;93.09
13705;BME280;6924;52.122;9.952;2023-11-19T12:59:33;99633.44;;;11.46;93.86
13705;BME280;6924;52.122;9.952;2023-11-19T13:02:03;99657.78;;;11.47;93.48
13705;BME280;6924;52.122;9.952;2023-11-19T13:04:37;99657.41;;;11.48;94.67
13705;BME280;6924;52.122;9.952;2023-11-19T13:07:05;99649.84;;;11.40;95.38
13705;BME280;6924;52.122;9.952;2023-11-19T13:10:07;99652.28;;;11.42;96.99
13705;BME280;6924;52.122;9.952;2023-11-19T13:13:11;99640.34;;;11.36;97.29
13705;BME280;6924;52.122;9.952;2023-11-19T13:15:44;99649.03;;;11.31;98.93
13705;BME280;6924;52.122;9.952;2023-11-19T13:18:48;99656.53;;;11.35;99.53
13705;BME280;6924;52.122;9.952;2023-11-19T13:21:32;99634.25;;;11.25;100.00
13705;BME280;6924;52.122;9.952;2023-11-19T13:24:13;99642.41;;;11.27;100.00
13705;BME280;6924;52.122;9.952;2023-11-19T13:26:42;99652.06;;;11.26;100.00
13705;BME280;6924;52.122;9.952;2023-11-19T13:29:09;99645.59;;;11.25;100.00